Main page
METAR-TAF:

METAR-TAF

Airports :

King Abdulaziz International Airport

Jeddah, Saudi Arabia

latitude: 21-42N, longitude: 039-11E, elevation: 15 m

Current weather observation

The report was made 56 minutes ago, at 00:00 UTC
Wind 4 kt from the Northwest
Temperature 22°C
Humidity 73%
Pressure 1014 hPa
Visibility 10 km or more
no clouds below 1500 m and no cumulonimbus

METAR: OEJN 160000Z 31004KT CAVOK 22/17 Q1014 NOSIG

Time: 03:56 (00:56 UTC)

Forecast

The report was made 1 hour and 56 minutes ago, at 23:00 UTC
Forecast valid from 16 at 00 UTC to 17 at 06 UTC
Wind 6 kt from the North/Northeast
Visibility: 6000 m
Few clouds at a height of 4000 ft
Becoming
from 16 at 07 UTC to 16 at 09 UTC
Wind 15 kt from the West/Northwest

TAF: OEJN 152300Z 1600/1706 02006KT 6000 FEW040 BECMG 1607/1609 30015KT

Weather observations and forecasts of more than 4000 airports (METAR and TAF reports).

The available stations are represented by yellow and red dots on the map.

Hover mouse over dot to see the name of the station.

Then click to see weather observations and forecasts.

To change the map : click on the green buttons with a black cross to zoom in, on the green button with a dash to zoom out, or on the green arrows for adjacent maps.


METAR-TAF: